sensor_id;sensor_type;location;lat;lon;timestamp;P1;durP1;ratioP1;P2;durP2;ratioP2
11078;SDS011;5592;49.234;7.268;2023-03-19T00:01:54;13.70;;;6.77;;
11078;SDS011;5592;49.234;7.268;2023-03-19T00:04:19;12.10;;;6.50;;
11078;SDS011;5592;49.234;7.268;2023-03-19T00:06:46;15.27;;;6.00;;
11078;SDS011;5592;49.234;7.268;2023-03-19T00:09:11;13.20;;;6.57;;
11078;SDS011;5592;49.234;7.268;2023-03-19T00:11:37;9.70;;;6.03;;
11078;SDS011;5592;49.234;7.268;2023-03-19T00:14:03;11.27;;;6.60;;
11078;SDS011;5592;49.234;7.268;2023-03-19T00:16:29;9.03;;;6.60;;
11078;SDS011;5592;49.234;7.268;2023-03-19T00:18:55;10.70;;;6.77;;
11078;SDS011;5592;49.234;7.268;2023-03-19T00:21:21;10.60;;;6.90;;
11078;SDS011;5592;49.234;7.268;2023-03-19T00:23:47;19.17;;;7.47;;
11078;SDS011;5592;49.234;7.268;2023-03-19T00:26:12;11.70;;;6.90;;
11078;SDS011;5592;49.234;7.268;2023-03-19T00:28:38;10.00;;;6.73;;
11078;SDS011;5592;49.234;7.268;2023-03-19T00:31:22;10.77;;;6.60;;
11078;SDS011;5592;49.234;7.268;2023-03-19T00:33:48;12.50;;;7.47;;
11078;SDS011;5592;49.234;7.268;2023-03-19T00:36:14;13.03;;;6.50;;
11078;SDS011;5592;49.234;7.268;2023-03-19T00:38:43;13.47;;;7.20;;
11078;SDS011;5592;49.234;7.268;2023-03-19T00:41:09;9.57;;;6.30;;
11078;SDS011;5592;49.234;7.268;2023-03-19T00:43:35;9.50;;;5.50;;
11078;SDS011;5592;49.234;7.268;2023-03-19T00:46:01;11.00;;;6.40;;
11078;SDS011;5592;49.234;7.268;2023-03-19T00:48:27;11.20;;;6.93;;
11078;SDS011;5592;49.234;7.268;2023-03-19T00:50:52;14.83;;;6.60;;
11078;SDS011;5592;49.234;7.268;2023-03-19T00:53:18;17.93;;;7.10;;
11078;SDS011;5592;49.234;7.268;2023-03-19T00:55:44;13.20;;;6.97;;
11078;SDS011;5592;49.234;7.268;2023-03-19T00:58:10;12.43;;;7.53;;
11078;SDS011;5592;49.234;7.268;2023-03-19T01:00:36;9.43;;;6.27;;
11078;SDS011;5592;49.234;7.268;2023-03-19T01:03:03;12.73;;;6.70;;
11078;SDS011;5592;49.234;7.268;2023-03-19T01:05:29;10.50;;;7.80;;
11078;SDS011;5592;49.234;7.268;2023-03-19T01:07:55;12.00;;;7.37;;
11078;SDS011;5592;49.234;7.268;2023-03-19T01:10:21;17.33;;;8.10;;
11078;SDS011;5592;49.234;7.268;2023-03-19T01:12:48;12.87;;;7.20;;
11078;SDS011;5592;49.234;7.268;2023-03-19T01:15:14;8.93;;;7.20;;
11078;SDS011;5592;49.234;7.268;2023-03-19T01:17:44;12.77;;;7.10;;
11078;SDS011;5592;49.234;7.268;2023-03-19T01:20:10;11.70;;;7.10;;
11078;SDS011;5592;49.234;7.268;2023-03-19T01:22:43;9.70;;;6.93;;
11078;SDS011;5592;49.234;7.268;2023-03-19T01:25:10;14.73;;;6.77;;
11078;SDS011;5592;49.234;7.268;2023-03-19T01:27:38;14.80;;;6.90;;
11078;SDS011;5592;49.234;7.268;2023-03-19T01:30:07;13.57;;;7.30;;
11078;SDS011;5592;49.234;7.268;2023-03-19T01:32:33;21.87;;;8.10;;
11078;SDS011;5592;49.234;7.268;2023-03-19T01:34:58;11.47;;;7.73;;
11078;SDS011;5592;49.234;7.268;2023-03-19T01:37:24;10.10;;;6.87;;
11078;SDS011;5592;49.234;7.268;2023-03-19T01:39:50;17.53;;;7.70;;
11078;SDS011;5592;49.234;7.268;2023-03-19T01:42:15;17.63;;;8.03;;
11078;SDS011;5592;49.234;7.268;2023-03-19T01:44:41;9.80;;;7.30;;
11078;SDS011;5592;49.234;7.268;2023-03-19T01:50:02;18.00;;;8.33;;
11078;SDS011;5592;49.234;7.268;2023-03-19T01:52:30;12.73;;;7.37;;
11078;SDS011;5592;49.234;7.268;2023-03-19T01:54:58;12.23;;;7.43;;
11078;SDS011;5592;49.234;7.268;2023-03-19T01:57:28;11.30;;;7.23;;
11078;SDS011;5592;49.234;7.268;2023-03-19T01:59:55;13.40;;;7.70;;
11078;SDS011;5592;49.234;7.268;2023-03-19T02:02:27;10.30;;;7.20;;
11078;SDS011;5592;49.234;7.268;2023-03-19T02:04:57;9.13;;;6.23;;
11078;SDS011;5592;49.234;7.268;2023-03-19T02:07:27;11.23;;;6.97;;
11078;SDS011;5592;49.234;7.268;2023-03-19T02:09:55;14.47;;;8.20;;
11078;SDS011;5592;49.234;7.268;2023-03-19T02:12:23;10.77;;;7.03;;
11078;SDS011;5592;49.234;7.268;2023-03-19T02:14:49;15.10;;;7.30;;
11078;SDS011;5592;49.234;7.268;2023-03-19T02:17:15;15.50;;;8.03;;
11078;SDS011;5592;49.234;7.268;2023-03-19T02:22:24;8.60;;;6.00;;
11078;SDS011;5592;49.234;7.268;2023-03-19T02:27:37;12.63;;;6.43;;
11078;SDS011;5592;49.234;7.268;2023-03-19T02:30:20;15.20;;;6.00;;
11078;SDS011;5592;49.234;7.268;2023-03-19T02:32:54;10.10;;;6.10;;
11078;SDS011;5592;49.234;7.268;2023-03-19T02:35:20;9.20;;;5.60;;
11078;SDS011;5592;49.234;7.268;2023-03-19T02:37:45;8.30;;;5.90;;
11078;SDS011;5592;49.234;7.268;2023-03-19T02:40:16;13.20;;;6.13;;
11078;SDS011;5592;49.234;7.268;2023-03-19T02:42:46;15.43;;;7.57;;
11078;SDS011;5592;49.234;7.268;2023-03-19T02:45:12;9.90;;;6.23;;
11078;SDS011;5592;49.234;7.268;2023-03-19T02:47:38;14.87;;;7.00;;
11078;SDS011;5592;49.234;7.268;2023-03-19T02:50:05;9.80;;;6.43;;
11078;SDS011;5592;49.234;7.268;2023-03-19T02:52:31;10.03;;;6.73;;
11078;SDS011;5592;49.234;7.268;2023-03-19T02:54:57;10.00;;;6.47;;
11078;SDS011;5592;49.234;7.268;2023-03-19T02:57:23;11.70;;;7.20;;
11078;SDS011;5592;49.234;7.268;2023-03-19T02:59:49;9.77;;;6.30;;
11078;SDS011;5592;49.234;7.268;2023-03-19T03:02:15;11.20;;;7.10;;
11078;SDS011;5592;49.234;7.268;2023-03-19T03:04:41;13.37;;;6.07;;
11078;SDS011;5592;49.234;7.268;2023-03-19T03:07:07;13.37;;;6.43;;
11078;SDS011;5592;49.234;7.268;2023-03-19T03:09:33;15.00;;;7.17;;
11078;SDS011;5592;49.234;7.268;2023-03-19T03:11:59;10.50;;;5.90;;
11078;SDS011;5592;49.234;7.268;2023-03-19T03:14:24;11.50;;;6.83;;
11078;SDS011;5592;49.234;7.268;2023-03-19T03:16:50;12.03;;;7.40;;
11078;SDS011;5592;49.234;7.268;2023-03-19T03:19:16;13.03;;;6.70;;
11078;SDS011;5592;49.234;7.268;2023-03-19T03:21:42;21.70;;;6.77;;
11078;SDS011;5592;49.234;7.268;2023-03-19T03:24:07;8.50;;;5.80;;
11078;SDS011;5592;49.234;7.268;2023-03-19T03:26:35;12.33;;;6.37;;
11078;SDS011;5592;49.234;7.268;2023-03-19T03:29:03;10.87;;;6.47;;
11078;SDS011;5592;49.234;7.268;2023-03-19T03:31:29;9.63;;;6.33;;
11078;SDS011;5592;49.234;7.268;2023-03-19T03:33:55;11.67;;;7.80;;
11078;SDS011;5592;49.234;7.268;2023-03-19T03:36:20;10.13;;;6.30;;
11078;SDS011;5592;49.234;7.268;2023-03-19T03:38:46;10.57;;;7.13;;
11078;SDS011;5592;49.234;7.268;2023-03-19T03:41:12;9.10;;;6.67;;
11078;SDS011;5592;49.234;7.268;2023-03-19T03:43:37;8.00;;;5.87;;
11078;SDS011;5592;49.234;7.268;2023-03-19T03:46:04;13.23;;;6.93;;
11078;SDS011;5592;49.234;7.268;2023-03-19T03:48:30;14.43;;;6.63;;
11078;SDS011;5592;49.234;7.268;2023-03-19T03:50:55;20.07;;;7.37;;
11078;SDS011;5592;49.234;7.268;2023-03-19T03:53:21;10.07;;;6.30;;
11078;SDS011;5592;49.234;7.268;2023-03-19T03:55:46;11.83;;;6.40;;
11078;SDS011;5592;49.234;7.268;2023-03-19T03:58:13;16.83;;;6.40;;
11078;SDS011;5592;49.234;7.268;2023-03-19T04:00:38;10.23;;;6.50;;
11078;SDS011;5592;49.234;7.268;2023-03-19T04:03:04;10.93;;;6.30;;
11078;SDS011;5592;49.234;7.268;2023-03-19T04:05:30;14.40;;;6.13;;
11078;SDS011;5592;49.234;7.268;2023-03-19T04:07:56;9.07;;;5.90;;
11078;SDS011;5592;49.234;7.268;2023-03-19T04:10:22;7.07;;;5.97;;
11078;SDS011;5592;49.234;7.268;2023-03-19T04:12:48;11.37;;;6.10;;
11078;SDS011;5592;49.234;7.268;2023-03-19T04:15:14;10.23;;;6.57;;
11078;SDS011;5592;49.234;7.268;2023-03-19T04:17:40;8.10;;;6.00;;
11078;SDS011;5592;49.234;7.268;2023-03-19T04:20:07;11.13;;;6.77;;
11078;SDS011;5592;49.234;7.268;2023-03-19T04:22:33;9.13;;;6.10;;
11078;SDS011;5592;49.234;7.268;2023-03-19T04:24:58;8.40;;;5.53;;
11078;SDS011;5592;49.234;7.268;2023-03-19T04:27:24;8.30;;;5.50;;
11078;SDS011;5592;49.234;7.268;2023-03-19T04:29:50;6.77;;;5.00;;
11078;SDS011;5592;49.234;7.268;2023-03-19T04:32:15;5.67;;;5.00;;
11078;SDS011;5592;49.234;7.268;2023-03-19T04:34:41;10.30;;;6.00;;
11078;SDS011;5592;49.234;7.268;2023-03-19T04:37:07;11.90;;;6.60;;
11078;SDS011;5592;49.234;7.268;2023-03-19T04:39:34;14.73;;;5.50;;
11078;SDS011;5592;49.234;7.268;2023-03-19T04:42:00;11.07;;;6.63;;
11078;SDS011;5592;49.234;7.268;2023-03-19T04:44:27;7.87;;;5.57;;
11078;SDS011;5592;49.234;7.268;2023-03-19T04:46:52;8.60;;;5.70;;
11078;SDS011;5592;49.234;7.268;2023-03-19T04:49:18;11.13;;;5.73;;
11078;SDS011;5592;49.234;7.268;2023-03-19T04:51:44;7.40;;;5.30;;
11078;SDS011;5592;49.234;7.268;2023-03-19T04:54:10;9.17;;;5.97;;
11078;SDS011;5592;49.234;7.268;2023-03-19T04:56:36;7.67;;;5.10;;
11078;SDS011;5592;49.234;7.268;2023-03-19T04:59:01;10.40;;;5.60;;
11078;SDS011;5592;49.234;7.268;2023-03-19T05:01:28;9.80;;;5.10;;
11078;SDS011;5592;49.234;7.268;2023-03-19T05:03:54;6.87;;;5.20;;
11078;SDS011;5592;49.234;7.268;2023-03-19T05:06:19;7.87;;;5.60;;
11078;SDS011;5592;49.234;7.268;2023-03-19T05:08:45;10.83;;;6.17;;
11078;SDS011;5592;49.234;7.268;2023-03-19T05:11:11;8.73;;;5.40;;
11078;SDS011;5592;49.234;7.268;2023-03-19T05:13:37;8.30;;;5.53;;
11078;SDS011;5592;49.234;7.268;2023-03-19T05:16:02;8.03;;;5.30;;
11078;SDS011;5592;49.234;7.268;2023-03-19T05:18:28;11.50;;;5.03;;
11078;SDS011;5592;49.234;7.268;2023-03-19T05:20:54;6.57;;;5.50;;
11078;SDS011;5592;49.234;7.268;2023-03-19T05:23:19;5.73;;;4.80;;
11078;SDS011;5592;49.234;7.268;2023-03-19T05:25:46;8.17;;;5.57;;
11078;SDS011;5592;49.234;7.268;2023-03-19T05:28:13;11.37;;;5.33;;
11078;SDS011;5592;49.234;7.268;2023-03-19T05:30:39;6.60;;;5.40;;
11078;SDS011;5592;49.234;7.268;2023-03-19T05:33:05;7.37;;;5.37;;
11078;SDS011;5592;49.234;7.268;2023-03-19T05:35:31;10.73;;;5.80;;
11078;SDS011;5592;49.234;7.268;2023-03-19T05:37:56;5.80;;;5.00;;
11078;SDS011;5592;49.234;7.268;2023-03-19T05:40:22;10.30;;;4.97;;
11078;SDS011;5592;49.234;7.268;2023-03-19T05:42:49;5.67;;;4.60;;
11078;SDS011;5592;49.234;7.268;2023-03-19T05:45:15;10.97;;;5.87;;
11078;SDS011;5592;49.234;7.268;2023-03-19T05:47:41;10.90;;;5.20;;
11078;SDS011;5592;49.234;7.268;2023-03-19T05:50:09;9.93;;;5.37;;
11078;SDS011;5592;49.234;7.268;2023-03-19T05:52:35;6.90;;;5.20;;
11078;SDS011;5592;49.234;7.268;2023-03-19T05:55:01;11.10;;;4.70;;
11078;SDS011;5592;49.234;7.268;2023-03-19T05:57:27;9.10;;;5.50;;
11078;SDS011;5592;49.234;7.268;2023-03-19T05:59:52;7.10;;;4.67;;
11078;SDS011;5592;49.234;7.268;2023-03-19T06:02:18;7.70;;;5.10;;
11078;SDS011;5592;49.234;7.268;2023-03-19T06:04:44;8.53;;;4.83;;
11078;SDS011;5592;49.234;7.268;2023-03-19T06:07:10;7.90;;;5.10;;
11078;SDS011;5592;49.234;7.268;2023-03-19T06:09:35;7.00;;;4.93;;
11078;SDS011;5592;49.234;7.268;2023-03-19T06:12:01;8.00;;;4.50;;
11078;SDS011;5592;49.234;7.268;2023-03-19T06:14:27;5.03;;;4.10;;
11078;SDS011;5592;49.234;7.268;2023-03-19T06:16:53;8.20;;;5.27;;
11078;SDS011;5592;49.234;7.268;2023-03-19T06:19:19;15.53;;;4.97;;
11078;SDS011;5592;49.234;7.268;2023-03-19T06:21:45;7.63;;;4.80;;
11078;SDS011;5592;49.234;7.268;2023-03-19T06:24:10;8.03;;;5.40;;
11078;SDS011;5592;49.234;7.268;2023-03-19T06:26:36;6.57;;;4.60;;
11078;SDS011;5592;49.234;7.268;2023-03-19T06:29:02;7.60;;;4.83;;
11078;SDS011;5592;49.234;7.268;2023-03-19T06:31:27;5.80;;;4.60;;
11078;SDS011;5592;49.234;7.268;2023-03-19T06:33:53;8.80;;;5.67;;
11078;SDS011;5592;49.234;7.268;2023-03-19T06:36:20;8.60;;;4.73;;
11078;SDS011;5592;49.234;7.268;2023-03-19T06:38:45;9.10;;;5.57;;
11078;SDS011;5592;49.234;7.268;2023-03-19T06:41:11;7.23;;;5.10;;
11078;SDS011;5592;49.234;7.268;2023-03-19T06:43:37;7.43;;;4.90;;
11078;SDS011;5592;49.234;7.268;2023-03-19T06:46:05;8.60;;;4.83;;
11078;SDS011;5592;49.234;7.268;2023-03-19T06:48:33;11.43;;;4.97;;
11078;SDS011;5592;49.234;7.268;2023-03-19T06:50:59;6.37;;;4.90;;
11078;SDS011;5592;49.234;7.268;2023-03-19T06:53:25;7.10;;;4.70;;
11078;SDS011;5592;49.234;7.268;2023-03-19T06:55:51;7.50;;;5.40;;
11078;SDS011;5592;49.234;7.268;2023-03-19T06:58:17;7.57;;;3.97;;
11078;SDS011;5592;49.234;7.268;2023-03-19T07:00:44;10.03;;;5.00;;
11078;SDS011;5592;49.234;7.268;2023-03-19T07:03:09;4.97;;;3.63;;
11078;SDS011;5592;49.234;7.268;2023-03-19T07:05:35;6.27;;;4.57;;
11078;SDS011;5592;49.234;7.268;2023-03-19T07:08:01;6.53;;;4.90;;
11078;SDS011;5592;49.234;7.268;2023-03-19T07:10:27;8.60;;;5.00;;
11078;SDS011;5592;49.234;7.268;2023-03-19T07:12:53;6.00;;;4.40;;
11078;SDS011;5592;49.234;7.268;2023-03-19T07:15:18;11.37;;;4.80;;
11078;SDS011;5592;49.234;7.268;2023-03-19T07:17:45;8.53;;;5.00;;
11078;SDS011;5592;49.234;7.268;2023-03-19T07:20:12;5.87;;;4.43;;
11078;SDS011;5592;49.234;7.268;2023-03-19T07:22:38;6.40;;;4.60;;
11078;SDS011;5592;49.234;7.268;2023-03-19T07:25:03;8.13;;;5.23;;
11078;SDS011;5592;49.234;7.268;2023-03-19T07:27:29;6.67;;;5.17;;
11078;SDS011;5592;49.234;7.268;2023-03-19T07:29:55;10.40;;;4.77;;
11078;SDS011;5592;49.234;7.268;2023-03-19T07:32:21;7.30;;;4.80;;
11078;SDS011;5592;49.234;7.268;2023-03-19T07:34:47;7.10;;;4.80;;
11078;SDS011;5592;49.234;7.268;2023-03-19T07:37:13;14.33;;;4.73;;
11078;SDS011;5592;49.234;7.268;2023-03-19T07:39:39;8.03;;;4.13;;
11078;SDS011;5592;49.234;7.268;2023-03-19T07:42:05;7.67;;;4.70;;
11078;SDS011;5592;49.234;7.268;2023-03-19T07:44:31;8.40;;;5.07;;
11078;SDS011;5592;49.234;7.268;2023-03-19T07:46:57;7.37;;;4.00;;
11078;SDS011;5592;49.234;7.268;2023-03-19T07:49:23;6.00;;;4.30;;
11078;SDS011;5592;49.234;7.268;2023-03-19T07:51:50;5.90;;;4.07;;
11078;SDS011;5592;49.234;7.268;2023-03-19T07:54:18;4.43;;;3.40;;
11078;SDS011;5592;49.234;7.268;2023-03-19T07:56:45;4.33;;;3.93;;
11078;SDS011;5592;49.234;7.268;2023-03-19T07:59:11;4.57;;;3.80;;
11078;SDS011;5592;49.234;7.268;2023-03-19T08:01:36;6.57;;;3.80;;
11078;SDS011;5592;49.234;7.268;2023-03-19T08:04:02;4.87;;;3.73;;
11078;SDS011;5592;49.234;7.268;2023-03-19T08:06:28;5.60;;;3.23;;
11078;SDS011;5592;49.234;7.268;2023-03-19T08:08:53;7.73;;;3.87;;
11078;SDS011;5592;49.234;7.268;2023-03-19T08:11:19;8.10;;;4.13;;
11078;SDS011;5592;49.234;7.268;2023-03-19T08:13:45;4.90;;;3.07;;
11078;SDS011;5592;49.234;7.268;2023-03-19T08:16:11;6.10;;;3.50;;
11078;SDS011;5592;49.234;7.268;2023-03-19T08:18:37;5.40;;;3.57;;
11078;SDS011;5592;49.234;7.268;2023-03-19T08:21:03;6.87;;;3.50;;
11078;SDS011;5592;49.234;7.268;2023-03-19T08:23:29;5.63;;;3.67;;
11078;SDS011;5592;49.234;7.268;2023-03-19T08:25:55;4.50;;;3.10;;
11078;SDS011;5592;49.234;7.268;2023-03-19T08:28:21;7.60;;;2.90;;
11078;SDS011;5592;49.234;7.268;2023-03-19T08:30:47;4.67;;;3.03;;
11078;SDS011;5592;49.234;7.268;2023-03-19T08:33:13;5.77;;;3.03;;
11078;SDS011;5592;49.234;7.268;2023-03-19T08:35:39;5.70;;;3.53;;
11078;SDS011;5592;49.234;7.268;2023-03-19T08:38:05;6.27;;;3.40;;
11078;SDS011;5592;49.234;7.268;2023-03-19T08:40:31;7.20;;;3.60;;
11078;SDS011;5592;49.234;7.268;2023-03-19T08:42:56;6.20;;;3.27;;
11078;SDS011;5592;49.234;7.268;2023-03-19T08:45:22;6.00;;;3.00;;
11078;SDS011;5592;49.234;7.268;2023-03-19T08:47:48;6.20;;;3.00;;
11078;SDS011;5592;49.234;7.268;2023-03-19T08:50:14;4.47;;;3.10;;
11078;SDS011;5592;49.234;7.268;2023-03-19T08:52:40;5.40;;;3.23;;
11078;SDS011;5592;49.234;7.268;2023-03-19T08:55:05;7.40;;;3.57;;
11078;SDS011;5592;49.234;7.268;2023-03-19T08:57:32;4.83;;;3.00;;
11078;SDS011;5592;49.234;7.268;2023-03-19T08:59:58;5.20;;;2.90;;
11078;SDS011;5592;49.234;7.268;2023-03-19T09:02:24;7.60;;;3.60;;
11078;SDS011;5592;49.234;7.268;2023-03-19T09:04:49;5.57;;;3.23;;
11078;SDS011;5592;49.234;7.268;2023-03-19T09:07:15;4.47;;;2.73;;
11078;SDS011;5592;49.234;7.268;2023-03-19T09:09:41;7.03;;;3.47;;
11078;SDS011;5592;49.234;7.268;2023-03-19T09:12:10;8.77;;;3.53;;
11078;SDS011;5592;49.234;7.268;2023-03-19T09:14:38;5.93;;;3.13;;
11078;SDS011;5592;49.234;7.268;2023-03-19T09:17:04;7.00;;;3.70;;
11078;SDS011;5592;49.234;7.268;2023-03-19T09:19:30;6.73;;;3.30;;
11078;SDS011;5592;49.234;7.268;2023-03-19T09:21:57;3.93;;;2.50;;
11078;SDS011;5592;49.234;7.268;2023-03-19T09:24:23;4.43;;;2.97;;
11078;SDS011;5592;49.234;7.268;2023-03-19T09:26:49;6.50;;;3.33;;
11078;SDS011;5592;49.234;7.268;2023-03-19T09:29:15;5.77;;;3.40;;
11078;SDS011;5592;49.234;7.268;2023-03-19T09:31:41;5.43;;;2.93;;
11078;SDS011;5592;49.234;7.268;2023-03-19T09:34:07;5.07;;;2.80;;
11078;SDS011;5592;49.234;7.268;2023-03-19T09:36:33;5.30;;;2.87;;
11078;SDS011;5592;49.234;7.268;2023-03-19T09:39:00;4.10;;;2.53;;
11078;SDS011;5592;49.234;7.268;2023-03-19T09:44:29;3.87;;;2.80;;
11078;SDS011;5592;49.234;7.268;2023-03-19T09:49:45;5.80;;;3.77;;
11078;SDS011;5592;49.234;7.268;2023-03-19T09:57:49;14.43;;;4.47;;
11078;SDS011;5592;49.234;7.268;2023-03-19T10:02:45;4.30;;;3.10;;
11078;SDS011;5592;49.234;7.268;2023-03-19T10:05:26;4.40;;;2.90;;
11078;SDS011;5592;49.234;7.268;2023-03-19T10:13:42;5.10;;;2.80;;
11078;SDS011;5592;49.234;7.268;2023-03-19T10:16:21;7.90;;;3.30;;
11078;SDS011;5592;49.234;7.268;2023-03-19T10:18:50;4.83;;;2.63;;
11078;SDS011;5592;49.234;7.268;2023-03-19T10:24:21;6.03;;;2.40;;
11078;SDS011;5592;49.234;7.268;2023-03-19T10:26:59;3.97;;;2.70;;
11078;SDS011;5592;49.234;7.268;2023-03-19T10:29:29;5.93;;;2.87;;
11078;SDS011;5592;49.234;7.268;2023-03-19T10:32:02;3.43;;;2.40;;
11078;SDS011;5592;49.234;7.268;2023-03-19T10:34:32;3.80;;;2.50;;
11078;SDS011;5592;49.234;7.268;2023-03-19T10:37:22;4.73;;;2.80;;
11078;SDS011;5592;49.234;7.268;2023-03-19T10:39:54;4.20;;;2.60;;
11078;SDS011;5592;49.234;7.268;2023-03-19T10:47:45;8.17;;;3.30;;
11078;SDS011;5592;49.234;7.268;2023-03-19T10:50:54;4.87;;;2.50;;
11078;SDS011;5592;49.234;7.268;2023-03-19T10:55:43;5.93;;;2.80;;
11078;SDS011;5592;49.234;7.268;2023-03-19T10:58:24;5.53;;;2.63;;
11078;SDS011;5592;49.234;7.268;2023-03-19T11:00:55;9.10;;;3.33;;
11078;SDS011;5592;49.234;7.268;2023-03-19T11:03:31;5.43;;;3.00;;
11078;SDS011;5592;49.234;7.268;2023-03-19T11:08:54;4.43;;;3.07;;
11078;SDS011;5592;49.234;7.268;2023-03-19T11:11:35;4.70;;;2.67;;
11078;SDS011;5592;49.234;7.268;2023-03-19T11:14:08;6.47;;;2.73;;
11078;SDS011;5592;49.234;7.268;2023-03-19T11:17:04;4.90;;;2.90;;
11078;SDS011;5592;49.234;7.268;2023-03-19T11:19:40;4.20;;;2.70;;
11078;SDS011;5592;49.234;7.268;2023-03-19T11:22:16;6.37;;;3.13;;
11078;SDS011;5592;49.234;7.268;2023-03-19T11:28:33;4.70;;;3.00;;
11078;SDS011;5592;49.234;7.268;2023-03-19T11:30:45;9.13;;;3.00;;
11078;SDS011;5592;49.234;7.268;2023-03-19T11:33:19;7.30;;;3.87;;
11078;SDS011;5592;49.234;7.268;2023-03-19T11:44:28;6.40;;;4.13;;
11078;SDS011;5592;49.234;7.268;2023-03-19T11:47:22;7.63;;;3.63;;
11078;SDS011;5592;49.234;7.268;2023-03-19T11:50:03;4.40;;;3.77;;
11078;SDS011;5592;49.234;7.268;2023-03-19T11:55:40;5.90;;;3.27;;
11078;SDS011;5592;49.234;7.268;2023-03-19T12:01:09;6.00;;;3.30;;
11078;SDS011;5592;49.234;7.268;2023-03-19T12:06:32;13.60;;;2.93;;
11078;SDS011;5592;49.234;7.268;2023-03-19T12:09:22;3.60;;;2.90;;
11078;SDS011;5592;49.234;7.268;2023-03-19T12:12:17;3.23;;;2.77;;
11078;SDS011;5592;49.234;7.268;2023-03-19T12:14:57;6.10;;;3.33;;
11078;SDS011;5592;49.234;7.268;2023-03-19T12:23:04;4.20;;;2.60;;
11078;SDS011;5592;49.234;7.268;2023-03-19T12:33:51;4.97;;;1.97;;
11078;SDS011;5592;49.234;7.268;2023-03-19T12:36:25;2.30;;;2.00;;
11078;SDS011;5592;49.234;7.268;2023-03-19T12:39:05;2.43;;;2.20;;
11078;SDS011;5592;49.234;7.268;2023-03-19T12:41:42;2.50;;;2.10;;
11078;SDS011;5592;49.234;7.268;2023-03-19T12:49:46;3.37;;;2.37;;
11078;SDS011;5592;49.234;7.268;2023-03-19T12:52:39;3.73;;;2.23;;
11078;SDS011;5592;49.234;7.268;2023-03-19T12:55:23;3.80;;;2.50;;
11078;SDS011;5592;49.234;7.268;2023-03-19T12:58:03;4.80;;;2.17;;
11078;SDS011;5592;49.234;7.268;2023-03-19T13:03:11;3.50;;;2.10;;
11078;SDS011;5592;49.234;7.268;2023-03-19T13:12:02;2.73;;;1.97;;
11078;SDS011;5592;49.234;7.268;2023-03-19T13:20:24;4.10;;;2.00;;
11078;SDS011;5592;49.234;7.268;2023-03-19T13:23:05;3.07;;;1.67;;
11078;SDS011;5592;49.234;7.268;2023-03-19T13:25:34;1.63;;;1.33;;
11078;SDS011;5592;49.234;7.268;2023-03-19T13:28:11;3.47;;;1.53;;
11078;SDS011;5592;49.234;7.268;2023-03-19T13:30:56;3.27;;;1.70;;
11078;SDS011;5592;49.234;7.268;2023-03-19T13:33:35;1.50;;;1.30;;
11078;SDS011;5592;49.234;7.268;2023-03-19T13:36:03;1.80;;;1.40;;
11078;SDS011;5592;49.234;7.268;2023-03-19T13:41:04;2.30;;;1.40;;
11078;SDS011;5592;49.234;7.268;2023-03-19T13:43:51;2.90;;;1.43;;
11078;SDS011;5592;49.234;7.268;2023-03-19T13:59:25;1.97;;;1.40;;
11078;SDS011;5592;49.234;7.268;2023-03-19T14:01:52;1.43;;;1.33;;
11078;SDS011;5592;49.234;7.268;2023-03-19T14:04:19;1.63;;;1.20;;
11078;SDS011;5592;49.234;7.268;2023-03-19T14:07:10;2.47;;;1.10;;
11078;SDS011;5592;49.234;7.268;2023-03-19T14:25:16;1.50;;;1.10;;
11078;SDS011;5592;49.234;7.268;2023-03-19T14:27:49;1.10;;;1.00;;
11078;SDS011;5592;49.234;7.268;2023-03-19T14:30:36;0.70;;;0.70;;
11078;SDS011;5592;49.234;7.268;2023-03-19T14:33:07;0.60;;;0.60;;
11078;SDS011;5592;49.234;7.268;2023-03-19T14:35:58;0.60;;;0.57;;
11078;SDS011;5592;49.234;7.268;2023-03-19T14:38:39;1.10;;;0.70;;
11078;SDS011;5592;49.234;7.268;2023-03-19T14:41:11;2.63;;;0.70;;
11078;SDS011;5592;49.234;7.268;2023-03-19T14:49:19;0.70;;;0.60;;
11078;SDS011;5592;49.234;7.268;2023-03-19T14:52:11;1.87;;;0.90;;
11078;SDS011;5592;49.234;7.268;2023-03-19T14:57:18;1.00;;;0.70;;
11078;SDS011;5592;49.234;7.268;2023-03-19T14:59:48;0.77;;;0.60;;
11078;SDS011;5592;49.234;7.268;2023-03-19T15:02:24;0.70;;;0.70;;
11078;SDS011;5592;49.234;7.268;2023-03-19T15:05:08;0.70;;;0.70;;
11078;SDS011;5592;49.234;7.268;2023-03-19T15:07:40;2.33;;;0.80;;
11078;SDS011;5592;49.234;7.268;2023-03-19T15:10:28;0.60;;;0.60;;
11078;SDS011;5592;49.234;7.268;2023-03-19T15:13:17;0.70;;;0.70;;
11078;SDS011;5592;49.234;7.268;2023-03-19T15:15:54;1.27;;;0.70;;
11078;SDS011;5592;49.234;7.268;2023-03-19T15:18:37;0.60;;;0.60;;
11078;SDS011;5592;49.234;7.268;2023-03-19T15:21:03;0.97;;;0.80;;
11078;SDS011;5592;49.234;7.268;2023-03-19T15:23:30;0.70;;;0.60;;
11078;SDS011;5592;49.234;7.268;2023-03-19T15:26:00;1.07;;;0.80;;
11078;SDS011;5592;49.234;7.268;2023-03-19T15:28:32;2.87;;;0.70;;
11078;SDS011;5592;49.234;7.268;2023-03-19T15:31:08;0.70;;;0.60;;
11078;SDS011;5592;49.234;7.268;2023-03-19T15:33:37;0.70;;;0.70;;
11078;SDS011;5592;49.234;7.268;2023-03-19T15:38:53;0.60;;;0.60;;
11078;SDS011;5592;49.234;7.268;2023-03-19T15:41:23;0.83;;;0.60;;
11078;SDS011;5592;49.234;7.268;2023-03-19T15:43:52;0.90;;;0.80;;
11078;SDS011;5592;49.234;7.268;2023-03-19T15:46:20;1.73;;;0.60;;
11078;SDS011;5592;49.234;7.268;2023-03-19T15:48:55;0.60;;;0.60;;
11078;SDS011;5592;49.234;7.268;2023-03-19T15:51:27;0.60;;;0.60;;
11078;SDS011;5592;49.234;7.268;2023-03-19T15:53:53;1.00;;;0.75;;
11078;SDS011;5592;49.234;7.268;2023-03-19T15:56:23;1.10;;;0.90;;
11078;SDS011;5592;49.234;7.268;2023-03-19T15:58:50;1.37;;;0.83;;
11078;SDS011;5592;49.234;7.268;2023-03-19T16:01:19;2.23;;;1.57;;
11078;SDS011;5592;49.234;7.268;2023-03-19T16:03:50;1.40;;;1.20;;
11078;SDS011;5592;49.234;7.268;2023-03-19T16:06:22;2.60;;;1.70;;
11078;SDS011;5592;49.234;7.268;2023-03-19T16:08:52;3.77;;;1.20;;
11078;SDS011;5592;49.234;7.268;2023-03-19T16:11:29;3.83;;;1.10;;
11078;SDS011;5592;49.234;7.268;2023-03-19T16:13:59;0.70;;;0.70;;
11078;SDS011;5592;49.234;7.268;2023-03-19T16:16:27;1.00;;;0.80;;
11078;SDS011;5592;49.234;7.268;2023-03-19T16:18:56;1.70;;;0.70;;
11078;SDS011;5592;49.234;7.268;2023-03-19T16:23:55;0.80;;;0.60;;
11078;SDS011;5592;49.234;7.268;2023-03-19T16:26:25;1.00;;;0.80;;
11078;SDS011;5592;49.234;7.268;2023-03-19T16:32:01;0.80;;;0.70;;
11078;SDS011;5592;49.234;7.268;2023-03-19T16:47:43;1.43;;;0.80;;
11078;SDS011;5592;49.234;7.268;2023-03-19T16:50:13;0.90;;;0.77;;
11078;SDS011;5592;49.234;7.268;2023-03-19T16:52:40;1.10;;;0.70;;
11078;SDS011;5592;49.234;7.268;2023-03-19T16:55:23;1.63;;;1.00;;
11078;SDS011;5592;49.234;7.268;2023-03-19T16:57:59;1.67;;;0.67;;
11078;SDS011;5592;49.234;7.268;2023-03-19T17:00:28;1.03;;;0.70;;
11078;SDS011;5592;49.234;7.268;2023-03-19T17:02:55;0.80;;;0.73;;
11078;SDS011;5592;49.234;7.268;2023-03-19T17:05:21;0.83;;;0.70;;
11078;SDS011;5592;49.234;7.268;2023-03-19T17:07:49;0.90;;;0.90;;
11078;SDS011;5592;49.234;7.268;2023-03-19T17:10:16;1.10;;;0.90;;
11078;SDS011;5592;49.234;7.268;2023-03-19T17:12:44;2.33;;;0.90;;
11078;SDS011;5592;49.234;7.268;2023-03-19T17:15:21;0.80;;;0.67;;
11078;SDS011;5592;49.234;7.268;2023-03-19T17:17:50;0.83;;;0.70;;
11078;SDS011;5592;49.234;7.268;2023-03-19T17:20:19;0.70;;;0.70;;
11078;SDS011;5592;49.234;7.268;2023-03-19T17:22:47;1.17;;;0.77;;
11078;SDS011;5592;49.234;7.268;2023-03-19T17:25:13;0.97;;;0.87;;
11078;SDS011;5592;49.234;7.268;2023-03-19T17:27:42;0.90;;;0.90;;
11078;SDS011;5592;49.234;7.268;2023-03-19T17:30:08;1.10;;;1.00;;
11078;SDS011;5592;49.234;7.268;2023-03-19T17:32:35;1.83;;;0.70;;
11078;SDS011;5592;49.234;7.268;2023-03-19T17:35:02;0.70;;;0.70;;
11078;SDS011;5592;49.234;7.268;2023-03-19T17:37:30;1.57;;;0.80;;
11078;SDS011;5592;49.234;7.268;2023-03-19T17:39:56;0.67;;;0.67;;
11078;SDS011;5592;49.234;7.268;2023-03-19T17:42:22;0.77;;;0.77;;
11078;SDS011;5592;49.234;7.268;2023-03-19T17:44:48;0.97;;;0.80;;
11078;SDS011;5592;49.234;7.268;2023-03-19T17:47:15;1.13;;;1.03;;